createdAt,value
2023-04-25T00:00:50.041Z,83.94
2023-04-25T00:04:10.149Z,84.56
2023-04-25T00:12:05.747Z,86.23
2023-04-25T00:15:10.806Z,85.74
2023-04-25T00:19:14.710Z,86.09
2023-04-25T00:23:38.076Z,87.17
2023-04-25T00:27:41.633Z,86.15
2023-04-25T00:31:35.892Z,85.82
2023-04-25T00:34:40.425Z,86.39
2023-04-25T00:37:16.042Z,86.87
2023-04-25T00:40:07.690Z,86.46
2023-04-25T00:43:32.353Z,86.25
2023-04-25T00:46:21.826Z,85.53
2023-04-25T00:49:17.912Z,85.62
2023-04-25T00:52:03.067Z,87.61
2023-04-25T00:54:34.961Z,88.85
2023-04-25T00:57:30.651Z,89.42
2023-04-25T01:00:02.161Z,89.32
2023-04-25T01:03:12.871Z,88.14
2023-04-25T01:06:21.907Z,87.25
2023-04-25T01:09:30.271Z,86.80
2023-04-25T01:12:38.283Z,86.82
2023-04-25T01:15:29.923Z,86.71
2023-04-25T01:18:14.385Z,86.66
2023-04-25T01:21:34.190Z,86.65
2023-04-25T01:25:02.633Z,86.81
2023-04-25T01:28:01.848Z,86.80
2023-04-25T01:30:54.946Z,86.43
2023-04-25T01:34:17.097Z,86.22
2023-04-25T01:37:36.634Z,86.40
2023-04-25T01:41:38.796Z,87.20
2023-04-25T01:45:18.652Z,88.21
2023-04-25T01:49:15.805Z,87.76
2023-04-25T01:52:32.590Z,87.22
2023-04-25T01:55:50.667Z,86.54
2023-04-25T01:59:07.553Z,86.54
2023-04-25T02:02:34.767Z,86.18
2023-04-25T02:06:18.637Z,87.62
2023-04-25T02:09:30.470Z,87.67
2023-04-25T02:12:57.635Z,87.03
2023-04-25T02:16:07.770Z,88.68
2023-04-25T02:19:42.602Z,88.68
2023-04-25T02:27:21.614Z,90.90
2023-04-25T02:31:14.609Z,91.89
2023-04-25T02:34:39.433Z,90.15
2023-04-25T02:37:53.649Z,89.53
2023-04-25T02:42:08.555Z,90.38
2023-04-25T02:45:45.610Z,90.85
2023-04-25T02:49:40.569Z,89.57
2023-04-25T02:53:35.631Z,89.13
2023-04-25T02:57:12.639Z,88.88
2023-04-25T03:01:03.013Z,88.58
2023-04-25T03:04:20.785Z,89.52
2023-04-25T03:07:56.853Z,90.67
2023-04-25T03:11:30.776Z,92.53
2023-04-25T03:15:33.754Z,91.37
2023-04-25T03:19:23.425Z,91.71
2023-04-25T03:23:20.930Z,92.34
2023-04-25T03:31:02.754Z,90.44
2023-04-25T03:35:13.574Z,90.55
2023-04-25T03:39:19.679Z,89.98
2023-04-25T03:46:06.040Z,89.75
2023-04-25T03:49:04.555Z,89.86
2023-04-25T03:52:35.635Z,89.71
2023-04-25T03:55:43.587Z,89.47
2023-04-25T03:58:39.908Z,89.52
2023-04-25T04:02:24.749Z,89.06
2023-04-25T04:05:42.207Z,89.02
2023-04-25T04:12:27.570Z,88.64
2023-04-25T04:15:17.287Z,88.54
2023-04-25T04:18:14.354Z,88.01
2023-04-25T04:21:08.710Z,88.01
2023-04-25T04:28:37.647Z,87.33
2023-04-25T04:32:00.566Z,88.34
2023-04-25T04:34:59.917Z,87.67
2023-04-25T04:38:16.615Z,87.38
2023-04-25T04:41:17.205Z,88.34
2023-04-25T04:44:41.568Z,88.02
2023-04-25T04:48:03.947Z,92.73
2023-04-25T04:51:25.227Z,93.02
2023-04-25T04:54:08.790Z,93.37
2023-04-25T04:56:54.546Z,91.88
2023-04-25T04:59:34.637Z,92.04
2023-04-25T05:02:11.229Z,92.57
2023-04-25T05:04:57.830Z,92.28
2023-04-25T05:07:37.230Z,92.97
2023-04-25T05:10:16.691Z,92.76
2023-04-25T05:13:05.596Z,92.19
2023-04-25T05:15:46.543Z,91.23
2023-04-25T05:18:34.934Z,91.28
2023-04-25T05:21:16.324Z,90.48
2023-04-25T05:23:59.143Z,90.19
2023-04-25T05:26:47.339Z,89.81
2023-04-25T05:29:29.150Z,89.09
2023-04-25T05:32:16.115Z,88.34
2023-04-25T05:34:44.934Z,88.41
2023-04-25T05:37:33.937Z,88.01
2023-04-25T05:40:18.178Z,87.41
2023-04-25T05:42:59.500Z,87.16
2023-04-25T05:45:38.598Z,87.19
2023-04-25T05:48:38.315Z,86.94
2023-04-25T05:51:20.554Z,86.82
2023-04-25T05:54:02.700Z,86.45
2023-04-25T05:56:31.544Z,85.95
2023-04-25T05:59:03.139Z,85.96
2023-04-25T06:01:32.350Z,85.91
2023-04-25T06:04:04.423Z,85.69
2023-04-25T06:06:38.271Z,85.47
2023-04-25T06:09:15.077Z,84.87
2023-04-25T06:11:43.284Z,84.52
2023-04-25T06:14:11.793Z,84.64
2023-04-25T06:16:44.226Z,83.87
2023-04-25T06:19:15.642Z,84.31
2023-04-25T06:21:45.429Z,84.11
2023-04-25T06:24:17.533Z,83.59
2023-04-25T06:26:46.500Z,83.64
2023-04-25T06:29:17.606Z,83.35
2023-04-25T06:31:58.290Z,82.72
2023-04-25T06:34:29.191Z,81.94
2023-04-25T06:37:01.177Z,82.18
2023-04-25T06:39:37.660Z,82.08
2023-04-25T06:42:07.886Z,82.11
2023-04-25T06:44:43.190Z,82.03
2023-04-25T06:47:22.272Z,81.85
2023-04-25T06:49:51.432Z,81.44
2023-04-25T06:52:41.044Z,81.55
2023-04-25T06:55:33.425Z,81.72
2023-04-25T06:58:11.240Z,82.53
2023-04-25T07:01:12.968Z,82.23
2023-04-25T07:03:45.656Z,82.28
2023-04-25T07:06:23.383Z,82.24
2023-04-25T07:08:55.974Z,82.39
2023-04-25T07:11:32.559Z,82.02
2023-04-25T07:14:30.881Z,82.93
2023-04-25T07:17:11.444Z,83.04
2023-04-25T07:19:48.223Z,83.18
2023-04-25T07:22:19.577Z,83.02
2023-04-25T07:24:57.977Z,82.88
2023-04-25T07:27:41.542Z,82.66
2023-04-25T07:30:26.027Z,82.05
2023-04-25T07:33:04.109Z,82.07
2023-04-25T07:35:49.445Z,82.17
2023-04-25T07:38:30.138Z,83.36
2023-04-25T07:41:12.152Z,83.06
2023-04-25T07:44:16.009Z,82.43
2023-04-25T07:47:17.143Z,82.02
2023-04-25T07:50:02.054Z,81.99
2023-04-25T07:52:40.215Z,82.49
2023-04-25T07:55:23.659Z,82.08
2023-04-25T07:58:12.766Z,82.13
2023-04-25T08:00:59.633Z,82.01
2023-04-25T08:03:48.148Z,82.25
2023-04-25T08:06:31.875Z,82.11
2023-04-25T08:09:12.718Z,82.35
2023-04-25T08:11:53.162Z,83.01
2023-04-25T08:14:53.520Z,82.65
2023-04-25T08:17:35.536Z,82.38
2023-04-25T08:20:12.085Z,83.22
2023-04-25T08:22:41.001Z,82.98
2023-04-25T08:25:31.379Z,82.74
2023-04-25T08:28:02.132Z,82.23
2023-04-25T08:30:34.602Z,81.96
2023-04-25T08:33:03.503Z,82.55
2023-04-25T08:35:59.227Z,81.77
2023-04-25T08:38:27.861Z,81.35
2023-04-25T08:40:58.177Z,81.01
2023-04-25T08:43:34.596Z,81.38
2023-04-25T08:46:07.030Z,80.57
2023-04-25T08:48:46.438Z,80.93
2023-04-25T08:51:25.965Z,80.12
2023-04-25T08:56:40.880Z,79.87
2023-04-25T08:59:12.124Z,79.06
2023-04-25T09:01:45.303Z,79.45
2023-04-25T09:05:22.268Z,78.65
2023-04-25T09:11:54.571Z,78.80
2023-04-25T09:14:27.394Z,77.25
2023-04-25T09:17:10.055Z,77.68
2023-04-25T09:19:50.250Z,77.57
2023-04-25T09:22:23.823Z,77.53
2023-04-25T09:24:52.531Z,78.40
2023-04-25T09:27:24.333Z,78.42
2023-04-25T09:30:01.938Z,78.41
2023-04-25T09:32:35.734Z,78.75
2023-04-25T09:35:09.019Z,77.79
2023-04-25T09:37:37.270Z,76.43
2023-04-25T09:40:25.153Z,75.20
2023-04-25T09:43:00.386Z,74.80
2023-04-25T09:45:32.410Z,73.91
2023-04-25T09:51:28.935Z,70.68
2023-04-25T09:53:58.299Z,70.30
2023-04-25T09:56:38.813Z,70.83
2023-04-25T09:59:10.037Z,71.55
2023-04-25T10:01:41.558Z,70.44
2023-04-25T10:04:13.861Z,70.17
2023-04-25T10:06:51.531Z,70.47
2023-04-25T10:09:22.110Z,69.01
2023-04-25T10:12:39.682Z,68.78
2023-04-25T10:15:18.247Z,67.46
2023-04-25T10:18:05.064Z,65.88
2023-04-25T10:21:03.711Z,64.58
2023-04-25T10:23:40.368Z,63.97
2023-04-25T10:26:13.998Z,64.68
2023-04-25T10:29:29.084Z,64.48
2023-04-25T10:32:06.307Z,64.64
2023-04-25T10:34:57.207Z,64.26
2023-04-25T10:37:37.852Z,64.40
2023-04-25T10:40:19.381Z,65.36
2023-04-25T10:42:52.211Z,64.83
2023-04-25T10:45:33.578Z,63.05
2023-04-25T10:48:09.090Z,62.80
2023-04-25T10:50:52.036Z,62.33
2023-04-25T10:53:26.893Z,62.31
2023-04-25T10:56:04.210Z,63.01
2023-04-25T10:58:37.643Z,62.58
2023-04-25T11:01:08.333Z,62.85
2023-04-25T11:03:48.472Z,63.58
2023-04-25T11:07:05.501Z,63.60
2023-04-25T11:09:40.897Z,59.77
2023-04-25T11:12:17.771Z,58.37
2023-04-25T11:14:46.796Z,57.43
2023-04-25T11:17:15.684Z,57.96
2023-04-25T11:24:35.901Z,62.28
2023-04-25T11:30:51.635Z,63.75
2023-04-25T11:33:29.690Z,64.65
2023-04-25T11:36:22.301Z,66.10
2023-04-25T11:38:55.654Z,67.91
2023-04-25T11:41:27.328Z,68.82
2023-04-25T11:43:57.449Z,69.20
2023-04-25T11:46:26.638Z,69.31
2023-04-25T11:48:57.566Z,69.90
2023-04-25T11:51:26.992Z,69.70
2023-04-25T11:53:55.701Z,69.65
2023-04-25T11:56:24.110Z,69.49
2023-04-25T11:58:59.725Z,69.41
2023-04-25T12:01:35.318Z,69.91
2023-04-25T12:04:23.593Z,69.97
2023-04-25T12:06:54.498Z,69.83
2023-04-25T12:09:32.073Z,69.56
2023-04-25T12:12:04.557Z,70.02
2023-04-25T12:14:35.509Z,70.10
2023-04-25T12:17:10.116Z,69.80
2023-04-25T12:19:41.820Z,69.98
2023-04-25T12:22:24.236Z,69.67
2023-04-25T12:24:54.359Z,68.42
2023-04-25T12:27:22.505Z,68.14
2023-04-25T12:29:57.781Z,68.76
2023-04-25T12:32:27.617Z,68.88
2023-04-25T12:34:57.638Z,68.72
2023-04-25T12:37:32.973Z,68.19
2023-04-25T12:40:04.643Z,67.12
2023-04-25T12:43:01.108Z,66.73
2023-04-25T12:45:32.454Z,68.25
2023-04-25T12:48:39.514Z,68.23
2023-04-25T12:53:15.117Z,66.39
2023-04-25T12:55:29.935Z,66.55
2023-04-25T12:58:16.438Z,66.75
2023-04-25T13:00:47.703Z,66.67
2023-04-25T13:03:16.495Z,66.78
2023-04-25T13:05:44.965Z,66.25
2023-04-25T13:08:17.065Z,65.79
2023-04-25T13:10:45.454Z,65.80
2023-04-25T13:13:13.555Z,65.67
2023-04-25T13:15:41.840Z,65.24
2023-04-25T13:18:10.380Z,65.39
2023-04-25T13:20:38.646Z,65.71
2023-04-25T13:23:07.168Z,65.94
2023-04-25T13:25:37.477Z,66.09
2023-04-25T13:28:05.877Z,66.16
2023-04-25T13:30:34.711Z,66.46
2023-04-25T13:33:04.413Z,66.81
2023-04-25T13:36:16.881Z,66.80
2023-04-25T13:39:05.847Z,67.02
2023-04-25T13:41:45.344Z,67.12
2023-04-25T13:44:13.932Z,67.77
2023-04-25T13:46:47.117Z,68.27
2023-04-25T13:49:16.897Z,69.09
2023-04-25T13:51:46.476Z,69.84
2023-04-25T13:54:14.765Z,70.47
2023-04-25T13:56:47.445Z,71.07
2023-04-25T13:59:23.679Z,71.82
2023-04-25T14:02:03.083Z,72.83
2023-04-25T14:04:40.090Z,73.33
2023-04-25T14:07:08.402Z,73.72
2023-04-25T14:09:37.046Z,73.60
2023-04-25T14:12:07.346Z,74.28
2023-04-25T14:14:37.373Z,75.01
2023-04-25T14:17:06.139Z,75.70
2023-04-25T14:19:39.983Z,76.34
2023-04-25T14:22:23.124Z,76.42
2023-04-25T14:25:05.231Z,76.59
2023-04-25T14:27:39.296Z,76.75
2023-04-25T14:30:24.625Z,77.45
2023-04-25T14:34:08.161Z,77.91
2023-04-25T14:36:32.297Z,77.95
2023-04-25T14:39:11.251Z,78.07
2023-04-25T14:41:41.932Z,78.90
2023-04-25T14:44:11.446Z,79.19
2023-04-25T14:46:58.751Z,79.17
2023-04-25T14:54:40.121Z,79.69
2023-04-25T14:57:45.446Z,80.44
2023-04-25T15:00:22.958Z,84.06
2023-04-25T15:02:54.535Z,82.28
2023-04-25T15:05:25.762Z,81.95
2023-04-25T15:07:53.728Z,81.66
2023-04-25T15:10:23.372Z,81.38
2023-04-25T15:12:51.666Z,81.16
2023-04-25T15:15:26.023Z,80.89
2023-04-25T15:17:59.079Z,80.98
2023-04-25T15:20:28.621Z,80.97
2023-04-25T15:22:56.973Z,80.69
2023-04-25T15:25:29.592Z,81.05
2023-04-25T15:27:59.260Z,81.22
2023-04-25T15:30:28.360Z,81.95
2023-04-25T15:32:56.732Z,82.11
2023-04-25T15:35:24.975Z,81.74
2023-04-25T15:37:53.585Z,83.97
2023-04-25T15:40:22.215Z,82.96
2023-04-25T15:42:52.273Z,82.63
2023-04-25T15:45:26.232Z,82.60
2023-04-25T15:47:58.827Z,82.66
2023-04-25T15:50:27.295Z,82.90
2023-04-25T15:52:55.447Z,83.04
2023-04-25T15:55:27.106Z,83.10
2023-04-25T15:57:55.288Z,83.06
2023-04-25T16:00:23.885Z,83.37
2023-04-25T16:02:52.823Z,83.30
2023-04-25T16:05:20.904Z,83.64
2023-04-25T16:07:49.234Z,83.82
2023-04-25T16:10:21.452Z,83.63
2023-04-25T16:12:50.811Z,83.71
2023-04-25T16:15:19.033Z,83.44
2023-04-25T16:17:47.215Z,83.49
2023-04-25T16:20:16.240Z,83.61
2023-04-25T16:22:44.591Z,83.84
2023-04-25T16:25:13.142Z,83.82
2023-04-25T16:27:41.167Z,83.96
2023-04-25T16:30:11.069Z,84.01
2023-04-25T16:33:14.035Z,84.19
2023-04-25T16:35:43.202Z,84.92
2023-04-25T16:38:11.150Z,85.72
2023-04-25T16:40:39.181Z,86.98
2023-04-25T16:43:07.156Z,89.08
2023-04-25T16:45:43.524Z,88.39
2023-04-25T16:48:12.839Z,88.20
2023-04-25T16:51:01.334Z,88.77
2023-04-25T16:53:29.389Z,88.36
2023-04-25T16:55:57.269Z,89.68
2023-04-25T16:58:27.176Z,88.72
2023-04-25T17:00:56.033Z,88.65
2023-04-25T17:03:24.741Z,88.85
2023-04-25T17:08:14.714Z,88.42
2023-04-25T17:10:42.636Z,88.34
2023-04-25T17:13:10.911Z,87.91
2023-04-25T17:15:41.522Z,88.16
2023-04-25T17:18:09.527Z,87.93
2023-04-25T17:20:38.717Z,87.88
2023-04-25T17:23:06.586Z,88.14
2023-04-25T17:25:34.633Z,88.34
2023-04-25T17:28:02.576Z,88.16
2023-04-25T17:30:30.954Z,87.94
2023-04-25T17:32:59.262Z,87.69
2023-04-25T17:35:28.735Z,87.91
2023-04-25T17:37:56.774Z,87.60
2023-04-25T17:40:25.777Z,87.34
2023-04-25T17:42:53.624Z,87.36
2023-04-25T17:45:21.696Z,87.44
2023-04-25T17:47:49.641Z,87.64
2023-04-25T17:50:18.434Z,87.22
2023-04-25T17:52:48.298Z,87.34
2023-04-25T17:55:16.271Z,87.24
2023-04-25T17:57:44.212Z,87.50
2023-04-25T18:00:13.127Z,87.63
2023-04-25T18:02:41.457Z,87.15
2023-04-25T18:05:09.984Z,87.23
2023-04-25T18:07:38.240Z,87.17
2023-04-25T18:10:06.803Z,87.25
2023-04-25T18:12:35.879Z,87.33
2023-04-25T18:15:06.955Z,87.69
2023-04-25T18:17:40.232Z,88.06
2023-04-25T18:20:13.783Z,87.66
2023-04-25T18:22:42.873Z,87.44
2023-04-25T18:25:11.657Z,87.53
2023-04-25T18:27:40.849Z,87.39
2023-04-25T18:30:11.144Z,87.42
2023-04-25T18:32:39.748Z,87.31
2023-04-25T18:35:10.230Z,87.32
2023-04-25T18:42:16.893Z,87.51
2023-04-25T18:46:25.072Z,87.47
2023-04-25T18:49:50.152Z,87.26
2023-04-25T18:56:39.060Z,87.03
2023-04-25T19:00:45.948Z,87.03
2023-04-25T19:03:24.391Z,87.06
2023-04-25T19:05:52.973Z,86.86
2023-04-25T19:08:26.553Z,86.68
2023-04-25T19:10:55.692Z,86.75
2023-04-25T19:13:24.630Z,86.83
2023-04-25T19:15:53.760Z,86.99
2023-04-25T19:18:22.695Z,86.94
2023-04-25T19:20:52.080Z,87.05
2023-04-25T19:23:22.345Z,87.03
2023-04-25T19:29:15.192Z,87.62
2023-04-25T19:31:46.992Z,87.55
2023-04-25T19:34:15.002Z,87.63
2023-04-25T19:36:44.787Z,88.10
2023-04-25T19:39:13.647Z,91.08
2023-04-25T19:41:43.315Z,89.91
2023-04-25T19:44:12.246Z,89.65
2023-04-25T19:47:06.934Z,89.83
2023-04-25T19:49:36.571Z,89.21
2023-04-25T19:52:18.928Z,89.10
2023-04-25T19:54:47.417Z,89.12
2023-04-25T19:57:42.140Z,89.08
2023-04-25T20:00:19.220Z,89.92
2023-04-25T20:02:48.982Z,89.45
2023-04-25T20:05:38.943Z,89.32
2023-04-25T20:11:09.110Z,89.26
2023-04-25T20:13:37.392Z,89.14
2023-04-25T20:16:07.877Z,89.33
2023-04-25T20:18:37.895Z,88.96
2023-04-25T20:21:14.082Z,88.98
2023-04-25T20:23:44.201Z,89.15
2023-04-25T20:26:13.039Z,89.14
2023-04-25T20:28:42.758Z,89.68
2023-04-25T20:34:17.945Z,90.82
2023-04-25T20:36:46.286Z,91.70
2023-04-25T20:39:15.834Z,91.42
2023-04-25T20:41:45.637Z,92.50
2023-04-25T20:44:45.917Z,92.61
2023-04-25T20:48:04.973Z,92.05
2023-04-25T20:51:00.862Z,91.74
2023-04-25T20:55:04.848Z,91.06
2023-04-25T20:58:51.148Z,90.88
2023-04-25T21:06:20.896Z,90.12
2023-04-25T21:10:09.923Z,89.87
2023-04-25T21:12:54.353Z,89.56
2023-04-25T21:15:24.630Z,89.57
2023-04-25T21:17:53.380Z,89.44
2023-04-25T21:20:22.583Z,89.63
2023-04-25T21:23:10.035Z,89.62
2023-04-25T21:26:05.869Z,89.82
2023-04-25T21:28:51.372Z,90.25
2023-04-25T21:31:21.332Z,90.11
2023-04-25T21:33:54.329Z,90.41
2023-04-25T21:36:24.210Z,90.65
2023-04-25T21:39:22.940Z,91.00
2023-04-25T21:43:21.802Z,91.47
2023-04-25T21:47:02.012Z,91.68
2023-04-25T21:50:52.845Z,91.63
2023-04-25T21:54:43.924Z,91.66
2023-04-25T21:57:39.915Z,91.74
2023-04-25T22:01:39.358Z,91.89
2023-04-25T22:06:50.596Z,92.32
2023-04-25T22:09:51.239Z,92.44
2023-04-25T22:13:06.974Z,92.31
2023-04-25T22:24:14.901Z,92.21
2023-04-25T22:28:04.879Z,92.42
2023-04-25T22:31:57.594Z,92.66
2023-04-25T22:36:02.684Z,92.87
2023-04-25T22:40:05.153Z,92.23
2023-04-25T22:43:59.882Z,92.53
2023-04-25T22:47:30.483Z,92.09
2023-04-25T22:51:19.163Z,91.51
2023-04-25T22:55:08.848Z,90.79
2023-04-25T22:58:29.866Z,90.38
2023-04-25T23:02:17.316Z,89.92
2023-04-25T23:05:38.474Z,89.95
2023-04-25T23:29:22.554Z,88.22
2023-04-25T23:31:50.914Z,88.06
2023-04-25T23:34:18.920Z,88.12
2023-04-25T23:36:47.233Z,87.99
2023-04-25T23:39:24.536Z,88.26
2023-04-25T23:41:52.984Z,88.33
2023-04-25T23:44:20.820Z,88.59
2023-04-25T23:46:48.890Z,88.83
2023-04-25T23:49:17.072Z,88.85
2023-04-25T23:51:45.040Z,89.16
2023-04-25T23:54:13.518Z,89.06
2023-04-25T23:56:41.501Z,88.71
2023-04-25T23:59:09.797Z,88.49
